Time;durP1;ratioP1;P1;durP2;ratioP2;P2;SDS_P1;SDS_P2;PMS_P1;PMS_P2;Temp;Humidity;BMP_temperature;BMP_pressure;BME280_temperature;BME280_humidity;BME280_pressure;Samples;Min_cycle;Max_cycle;Signal;HPM_P1;HPM_P2
2022/12/18 00:01:36;;;;;;;55.77;26.93;;;-2.40;99.90;;;;;;5040755;28;20986;-40
2022/12/18 00:04:05;;;;;;;55.40;25.77;;;-2.40;99.90;;;;;;5040499;28;20055;-37
2022/12/18 00:06:32;;;;;;;55.23;26.33;;;-2.40;99.90;;;;;;5040978;28;20033;-39
2022/12/18 00:08:59;;;;;;;59.07;26.97;;;-2.50;99.90;;;;;;5041301;28;20050;-41
2022/12/18 00:11:28;;;;;;;57.43;26.30;;;-2.50;99.90;;;;;;5040672;28;20487;-41
2022/12/18 00:13:56;;;;;;;57.20;25.70;;;-2.50;99.90;;;;;;5040958;28;20032;-39
2022/12/18 00:16:23;;;;;;;57.53;25.87;;;-2.60;99.90;;;;;;5040518;28;20503;-41
2022/12/18 00:18:51;;;;;;;56.80;26.10;;;-2.60;99.90;;;;;;5040221;28;20017;-41
2022/12/18 00:21:17;;;;;;;53.37;25.40;;;-2.70;99.90;;;;;;5040700;28;20079;-40
2022/12/18 00:23:44;;;;;;;52.30;26.63;;;-2.70;99.90;;;;;;5041492;28;20612;-40
2022/12/18 00:26:22;;;;;;;52.80;25.73;;;-2.70;99.90;;;;;;5040295;28;20029;-40
2022/12/18 00:28:47;;;;;;;52.73;25.97;;;-2.70;99.90;;;;;;5029488;28;20036;-39
2022/12/18 00:31:21;;;;;;;57.57;27.40;;;-2.70;99.90;;;;;;5040242;28;20029;-40
2022/12/18 00:33:47;;;;;;;56.17;26.10;;;-2.70;99.90;;;;;;5040910;28;20083;-38
2022/12/18 00:36:18;;;;;;;53.70;25.07;;;-2.70;99.90;;;;;;5040422;28;20060;-40
2022/12/18 00:38:45;;;;;;;50.57;24.40;;;-2.80;99.90;;;;;;5037362;28;20029;-40
2022/12/18 00:41:12;;;;;;;48.57;24.03;;;-2.80;99.90;;;;;;5040664;28;20127;-41
2022/12/18 00:43:39;;;;;;;50.47;25.23;;;-2.80;99.90;;;;;;5039888;28;20075;-40
2022/12/18 00:46:05;;;;;;;42.67;23.67;;;-2.80;99.90;;;;;;5040713;28;20106;-41
2022/12/18 00:48:31;;;;;;;48.67;23.70;;;-2.80;99.90;;;;;;5040592;28;20036;-41
2022/12/18 00:50:57;;;;;;;44.63;23.00;;;-2.90;99.90;;;;;;5040620;28;20029;-41
2022/12/18 00:53:22;;;;;;;42.97;23.43;;;-2.90;99.90;;;;;;5040186;28;20040;-40
2022/12/18 00:55:48;;;;;;;43.10;22.77;;;-2.90;99.90;;;;;;5040536;28;20086;-40
2022/12/18 00:58:15;;;;;;;46.33;23.43;;;-3.00;99.90;;;;;;5040327;28;20036;-41
2022/12/18 01:00:42;;;;;;;43.00;23.13;;;-3.00;99.90;;;;;;5040166;28;20613;-40
2022/12/18 01:03:07;;;;;;;43.97;23.40;;;-3.00;99.90;;;;;;5041222;28;20125;-40
2022/12/18 01:05:42;;;;;;;45.07;22.77;;;-3.00;99.90;;;;;;5040953;28;20029;-40
2022/12/18 01:08:07;;;;;;;39.57;21.30;;;-3.00;99.90;;;;;;5039778;28;20024;-41
2022/12/18 01:10:33;;;;;;;45.43;23.70;;;-3.00;99.90;;;;;;5041037;28;20068;-38
2022/12/18 01:12:59;;;;;;;43.80;23.83;;;-3.00;99.90;;;;;;5040922;28;20051;-40
2022/12/18 01:15:24;;;;;;;42.60;23.10;;;-3.00;99.90;;;;;;5040216;28;20056;-43
2022/12/18 01:17:52;;;;;;;46.50;23.00;;;-3.10;99.90;;;;;;5040162;28;20082;-41
2022/12/18 01:20:18;;;;;;;42.27;23.17;;;-3.10;99.90;;;;;;5040353;28;20058;-38
2022/12/18 01:22:43;;;;;;;39.47;22.47;;;-3.10;99.90;;;;;;5040783;28;20463;-40
2022/12/18 01:25:09;;;;;;;41.43;22.47;;;-3.10;99.90;;;;;;5040611;28;20027;-40
2022/12/18 01:27:34;;;;;;;39.50;21.70;;;-3.10;99.90;;;;;;5040209;28;20059;-40
2022/12/18 01:30:00;;;;;;;41.13;22.10;;;-3.20;99.90;;;;;;5041844;28;20061;-40
2022/12/18 01:32:26;;;;;;;39.93;21.33;;;-3.20;99.90;;;;;;5045291;28;20500;-41
2022/12/18 01:34:51;;;;;;;43.27;20.73;;;-3.20;99.90;;;;;;5044268;28;20491;-41
2022/12/18 01:37:18;;;;;;;39.17;20.77;;;-3.20;99.90;;;;;;5044673;28;20037;-40
2022/12/18 01:39:43;;;;;;;37.80;20.67;;;-3.20;99.90;;;;;;5044390;28;20482;-40
2022/12/18 01:42:12;;;;;;;34.10;18.93;;;-3.20;99.90;;;;;;5043937;28;20041;-41
2022/12/18 01:44:55;;;;;;;36.73;19.80;;;-3.20;99.90;;;;;;5044299;28;20032;-41
2022/12/18 01:47:39;;;;;;;40.00;20.83;;;-3.20;99.90;;;;;;5045178;28;20029;-41
2022/12/18 01:50:12;;;;;;;40.63;20.63;;;-3.30;99.90;;;;;;5044130;28;20103;-38
2022/12/18 01:52:48;;;;;;;35.20;19.77;;;-3.30;99.90;;;;;;5044635;28;20033;-41
2022/12/18 01:55:18;;;;;;;35.10;19.13;;;-3.30;99.90;;;;;;5043789;28;20071;-39
2022/12/18 01:57:43;;;;;;;39.37;19.83;;;-3.30;99.90;;;;;;5043910;28;20032;-40
2022/12/18 02:00:15;;;;;;;37.27;18.43;;;-3.30;99.90;;;;;;5043887;28;20029;-40
2022/12/18 02:02:42;;;;;;;37.03;19.83;;;-3.30;99.90;;;;;;5043380;28;20780;-40
2022/12/18 02:05:10;;;;;;;34.33;19.77;;;-3.30;99.90;;;;;;5043825;28;20041;-40
2022/12/18 02:07:45;;;;;;;35.77;19.53;;;-3.30;99.90;;;;;;5044215;28;20742;-38
2022/12/18 02:10:19;;;;;;;34.67;18.30;;;-3.30;99.90;;;;;;5043184;28;20112;-40
2022/12/18 02:12:59;;;;;;;36.43;19.90;;;-3.30;99.90;;;;;;5043412;28;20051;-40
2022/12/18 02:15:39;;;;;;;34.37;19.33;;;-3.30;99.90;;;;;;5044106;28;20021;-38
2022/12/18 02:18:11;;;;;;;35.43;18.80;;;-3.40;99.90;;;;;;5042874;28;20095;-40
2022/12/18 02:20:45;;;;;;;32.35;18.30;;;-3.40;99.90;;;;;;5043140;28;20033;-39
2022/12/18 02:23:32;;;;;;;34.83;19.23;;;-3.40;99.90;;;;;;5043597;28;20037;-40
2022/12/18 02:26:13;;;;;;;34.10;18.70;;;-3.40;99.90;;;;;;5043479;28;20242;-41
2022/12/18 02:29:06;;;;;;;35.03;18.60;;;-3.40;99.90;;;;;;5043601;28;20170;-40
2022/12/18 02:31:38;;;;;;;34.97;18.83;;;-3.40;99.90;;;;;;5038749;28;20033;-41
2022/12/18 02:34:06;;;;;;;33.85;18.13;;;-3.50;99.90;;;;;;5042436;28;20045;-38
2022/12/18 02:36:33;;;;;;;32.30;18.73;;;-3.50;99.90;;;;;;5043149;28;20029;-41
2022/12/18 02:39:01;;;;;;;35.60;18.40;;;-3.50;99.90;;;;;;5042372;28;20039;-40
2022/12/18 02:41:27;;;;;;;36.40;18.77;;;-3.50;99.90;;;;;;5041377;28;20123;-39
2022/12/18 02:43:58;;;;;;;34.00;18.73;;;-3.50;99.90;;;;;;5042538;28;20566;-39
2022/12/18 02:46:38;;;;;;;33.03;17.30;;;-3.50;99.90;;;;;;5042315;28;20053;-40
2022/12/18 02:49:31;;;;;;;33.03;17.63;;;-3.50;99.90;;;;;;5043344;28;20194;-40
2022/12/18 02:52:34;;;;;;;30.08;16.40;;;-3.60;99.90;;;;;;5041697;28;20021;-40
2022/12/18 02:55:11;;;;;;;30.73;16.50;;;-3.50;99.90;;;;;;5023011;28;20044;-41
2022/12/18 02:57:46;;;;;;;32.67;17.23;;;-3.60;99.90;;;;;;5038277;28;20044;-37
2022/12/18 03:00:31;;;;;;;27.43;16.80;;;-3.60;99.90;;;;;;5022059;28;20578;-40
2022/12/18 03:03:02;;;;;;;30.93;16.87;;;-3.60;99.90;;;;;;5039734;28;20025;-41
2022/12/18 03:05:43;;;;;;;29.90;16.03;;;-3.60;99.90;;;;;;5043325;28;20028;-41
2022/12/18 03:08:20;;;;;;;28.50;16.13;;;-3.60;99.90;;;;;;5041961;28;20072;-41
2022/12/18 03:10:55;;;;;;;27.80;15.27;;;-3.60;99.90;;;;;;5042495;28;20085;-39
2022/12/18 03:13:43;;;;;;;29.53;16.10;;;-3.60;99.90;;;;;;5040665;28;20585;-41
2022/12/18 03:16:13;;;;;;;31.23;16.93;;;-3.60;99.90;;;;;;5032629;28;20022;-40
2022/12/18 03:18:50;;;;;;;29.70;15.77;;;-3.60;99.90;;;;;;5040536;28;20032;-40
2022/12/18 03:21:21;;;;;;;25.67;14.70;;;-3.60;99.90;;;;;;5042299;28;20044;-39
2022/12/18 03:23:52;;;;;;;24.40;14.50;;;-3.60;99.90;;;;;;5042199;28;20036;-40
2022/12/18 03:26:21;;;;;;;30.47;16.33;;;-3.60;99.90;;;;;;5042639;28;20052;-40
2022/12/18 03:28:52;;;;;;;29.57;16.10;;;-3.60;99.90;;;;;;5041731;28;20039;-39
2022/12/18 03:31:22;;;;;;;31.43;15.33;;;-3.60;99.90;;;;;;5042275;28;20053;-42
2022/12/18 03:33:56;;;;;;;30.07;15.37;;;-3.70;99.90;;;;;;5040695;28;20049;-40
2022/12/18 03:36:23;;;;;;;28.63;16.07;;;-3.70;99.90;;;;;;5022770;28;20712;-40
2022/12/18 03:38:48;;;;;;;31.13;15.77;;;-3.60;99.90;;;;;;5036727;28;20032;-45
2022/12/18 03:41:26;;;;;;;29.67;16.10;;;-3.60;99.90;;;;;;5041561;28;20059;-40
2022/12/18 03:44:03;;;;;;;27.93;16.50;;;-3.70;99.90;;;;;;5041617;28;20120;-38
2022/12/18 03:46:57;;;;;;;29.63;16.47;;;-3.70;99.90;;;;;;5041805;28;20032;-41
2022/12/18 03:49:53;;;;;;;27.70;15.67;;;-3.70;99.90;;;;;;5041427;28;20356;-41
2022/12/18 03:52:52;;;;;;;28.73;16.73;;;-3.70;99.90;;;;;;5022555;28;20082;-41
2022/12/18 03:55:20;;;;;;;26.67;16.10;;;-3.70;99.90;;;;;;5028868;28;20120;-40
2022/12/18 03:57:48;;;;;;;26.60;15.33;;;-3.70;99.90;;;;;;5041623;28;20029;-40
2022/12/18 04:00:16;;;;;;;27.77;15.33;;;-3.70;99.90;;;;;;5041142;28;20079;-40
2022/12/18 04:02:50;;;;;;;25.67;15.07;;;-3.70;99.90;;;;;;5041140;28;20825;-41
2022/12/18 04:05:16;;;;;;;24.63;14.60;;;-3.70;99.90;;;;;;5041357;28;20021;-40
2022/12/18 04:07:43;;;;;;;26.17;14.57;;;-3.80;99.90;;;;;;5041133;28;20025;-41
2022/12/18 04:10:13;;;;;;;26.27;15.13;;;-3.80;99.90;;;;;;5041004;28;20021;-41
2022/12/18 04:12:39;;;;;;;25.37;14.07;;;-3.80;99.90;;;;;;5041914;28;20021;-41
2022/12/18 04:15:05;;;;;;;23.23;13.60;;;-3.80;99.90;;;;;;5040980;28;20060;-40
2022/12/18 04:17:31;;;;;;;28.60;15.97;;;-3.80;99.90;;;;;;5041060;28;20029;-41
2022/12/18 04:19:56;;;;;;;24.40;12.90;;;-3.80;99.90;;;;;;5040327;28;20844;-39
2022/12/18 04:22:22;;;;;;;22.40;13.30;;;-3.80;99.90;;;;;;5040607;28;20028;-39
2022/12/18 04:24:48;;;;;;;27.13;13.67;;;-3.80;99.90;;;;;;5039914;28;20658;-41
2022/12/18 04:27:13;;;;;;;22.60;13.77;;;-3.80;99.90;;;;;;5040817;28;20053;-40
2022/12/18 04:29:39;;;;;;;24.27;13.70;;;-3.80;99.90;;;;;;5040516;28;20519;-41
2022/12/18 04:32:05;;;;;;;21.63;13.73;;;-3.80;99.90;;;;;;5040337;28;20124;-39
2022/12/18 04:34:30;;;;;;;23.27;13.43;;;-3.80;99.90;;;;;;5041558;28;20377;-42
2022/12/18 04:36:56;;;;;;;22.20;13.20;;;-3.90;99.90;;;;;;5041455;28;20103;-41
2022/12/18 04:39:22;;;;;;;25.97;13.60;;;-3.90;99.90;;;;;;5040374;28;20037;-38
2022/12/18 04:41:47;;;;;;;20.53;12.07;;;-3.80;99.90;;;;;;5040992;28;20037;-37
2022/12/18 04:44:13;;;;;;;21.47;12.57;;;-3.90;99.90;;;;;;5039914;28;20032;-38
2022/12/18 04:46:38;;;;;;;24.03;13.60;;;-3.80;99.90;;;;;;5040053;28;20048;-39
2022/12/18 04:49:04;;;;;;;23.10;12.93;;;-3.90;99.90;;;;;;5040620;28;20029;-38
2022/12/18 04:51:29;;;;;;;23.27;14.40;;;-3.90;99.90;;;;;;5039730;28;20029;-40
2022/12/18 04:53:55;;;;;;;20.83;12.50;;;-3.80;99.90;;;;;;5040784;28;20035;-39
2022/12/18 04:56:21;;;;;;;19.87;11.77;;;-3.80;99.90;;;;;;5040423;28;20033;-40
2022/12/18 04:58:46;;;;;;;22.17;12.67;;;-3.80;99.90;;;;;;5039516;28;20071;-41
2022/12/18 05:01:13;;;;;;;22.00;12.60;;;-3.80;99.90;;;;;;5039826;28;20037;-38
2022/12/18 05:03:39;;;;;;;21.53;12.70;;;-3.80;99.90;;;;;;5040966;28;20115;-39
2022/12/18 05:06:06;;;;;;;20.97;12.27;;;-3.80;99.90;;;;;;5039982;28;20082;-40
2022/12/18 05:08:32;;;;;;;22.77;13.40;;;-3.80;99.90;;;;;;5040298;28;20040;-38
2022/12/18 05:11:03;;;;;;;18.53;12.27;;;-3.80;99.90;;;;;;5040400;28;20099;-40
2022/12/18 05:13:29;;;;;;;20.03;11.80;;;-3.90;99.90;;;;;;5040319;28;20020;-39
2022/12/18 05:15:55;;;;;;;19.23;11.93;;;-3.90;99.90;;;;;;5040162;28;20127;-40
2022/12/18 05:18:22;;;;;;;20.83;11.47;;;-3.90;99.90;;;;;;5039993;28;20747;-41
2022/12/18 05:20:49;;;;;;;18.23;11.03;;;-3.90;99.90;;;;;;5040260;28;20040;-39
2022/12/18 05:23:15;;;;;;;19.60;11.73;;;-3.90;99.90;;;;;;5040579;28;20025;-38
2022/12/18 05:25:40;;;;;;;20.20;11.70;;;-3.90;99.90;;;;;;5040916;28;20037;-38
2022/12/18 05:28:06;;;;;;;17.30;10.23;;;-3.90;99.90;;;;;;5039790;28;20032;-39
2022/12/18 05:30:31;;;;;;;20.27;11.00;;;-3.90;99.90;;;;;;5040483;28;20040;-39
2022/12/18 05:32:57;;;;;;;21.37;11.67;;;-3.90;99.90;;;;;;5038931;28;20053;-42
2022/12/18 05:35:22;;;;;;;22.13;11.80;;;-3.90;99.90;;;;;;5039948;28;20127;-38
2022/12/18 05:37:48;;;;;;;17.03;10.50;;;-3.90;99.90;;;;;;5039992;28;20122;-40
2022/12/18 05:40:13;;;;;;;21.03;11.50;;;-3.90;99.90;;;;;;5039791;28;20029;-40
2022/12/18 05:42:39;;;;;;;20.67;11.57;;;-3.90;99.90;;;;;;5038953;28;20033;-38
2022/12/18 05:45:06;;;;;;;18.93;10.77;;;-4.00;99.90;;;;;;5039773;28;20036;-40
2022/12/18 05:47:31;;;;;;;18.40;11.07;;;-3.90;99.90;;;;;;5039433;28;20032;-41
2022/12/18 05:49:57;;;;;;;18.07;11.07;;;-3.90;99.90;;;;;;5039992;28;20025;-40
2022/12/18 05:52:23;;;;;;;18.20;11.33;;;-3.90;99.90;;;;;;5040755;28;20647;-39
2022/12/18 05:54:48;;;;;;;17.63;10.53;;;-3.90;99.90;;;;;;5040365;28;20055;-38
2022/12/18 05:57:14;;;;;;;17.77;10.77;;;-3.90;99.90;;;;;;5040156;28;20124;-40
2022/12/18 05:59:39;;;;;;;18.43;11.33;;;-3.90;99.90;;;;;;5040730;28;20119;-41
2022/12/18 06:02:05;;;;;;;16.90;10.37;;;-3.90;99.90;;;;;;5040057;28;20102;-38
2022/12/18 06:04:31;;;;;;;19.73;12.73;;;-3.90;99.90;;;;;;5040402;28;20025;-40
2022/12/18 06:06:59;;;;;;;19.03;12.30;;;-3.90;99.90;;;;;;5040531;28;20025;-37
2022/12/18 06:09:25;;;;;;;19.40;12.17;;;-3.90;99.90;;;;;;5039431;28;20025;-40
2022/12/18 06:11:51;;;;;;;18.23;12.20;;;-3.90;99.90;;;;;;5040673;28;20029;-39
2022/12/18 06:14:17;;;;;;;16.57;11.67;;;-3.90;99.90;;;;;;5040109;28;20025;-41
2022/12/18 06:16:43;;;;;;;18.50;12.60;;;-3.80;99.90;;;;;;5042136;28;20055;-37
2022/12/18 06:19:15;;;;;;;20.73;12.00;;;-3.80;99.90;;;;;;5043307;28;20385;-40
2022/12/18 06:21:40;;;;;;;19.67;12.80;;;-3.80;99.90;;;;;;5042936;28;20508;-39
2022/12/18 06:24:06;;;;;;;16.70;10.70;;;-3.80;99.90;;;;;;5042545;28;20163;-40
2022/12/18 06:26:32;;;;;;;16.80;11.37;;;-3.80;99.90;;;;;;5043311;28;20473;-39
2022/12/18 06:28:57;;;;;;;20.53;12.33;;;-3.80;99.90;;;;;;5042884;28;20032;-41
2022/12/18 06:31:23;;;;;;;21.00;11.63;;;-3.80;99.90;;;;;;5043308;28;20049;-41
2022/12/18 06:33:49;;;;;;;20.07;12.67;;;-3.80;99.90;;;;;;5043309;28;20471;-39
2022/12/18 06:36:16;;;;;;;19.50;11.20;;;-3.80;99.90;;;;;;5043280;28;20048;-38
2022/12/18 06:38:43;;;;;;;20.40;12.23;;;-3.80;99.90;;;;;;5042616;28;20132;-40
2022/12/18 06:41:10;;;;;;;20.33;12.70;;;-3.80;99.90;;;;;;5043063;28;20036;-40
2022/12/18 06:43:36;;;;;;;20.63;11.27;;;-3.80;99.90;;;;;;5042845;28;20732;-35
2022/12/18 06:46:03;;;;;;;19.13;11.40;;;-3.80;99.90;;;;;;5042569;28;20025;-40
2022/12/18 06:48:28;;;;;;;17.43;11.03;;;-3.80;99.90;;;;;;5044078;28;20314;-40
2022/12/18 06:50:54;;;;;;;20.90;12.30;;;-3.80;99.90;;;;;;5041901;28;20031;-37
2022/12/18 06:53:23;;;;;;;20.27;12.10;;;-3.70;99.90;;;;;;5043082;28;20043;-37
2022/12/18 06:55:48;;;;;;;20.17;11.07;;;-3.70;99.90;;;;;;5043052;28;20041;-35
2022/12/18 06:58:14;;;;;;;19.70;11.53;;;-3.80;99.90;;;;;;5042653;28;20024;-40
2022/12/18 07:00:40;;;;;;;18.60;11.40;;;-3.70;99.90;;;;;;5042682;28;20040;-39
2022/12/18 07:03:05;;;;;;;18.93;11.87;;;-3.70;99.90;;;;;;5042961;28;20036;-40
2022/12/18 07:05:31;;;;;;;20.30;11.63;;;-3.70;99.90;;;;;;5042250;28;20072;-38
2022/12/18 07:07:58;;;;;;;17.73;11.00;;;-3.70;99.90;;;;;;5041802;28;20061;-40
2022/12/18 07:10:23;;;;;;;17.00;10.97;;;-3.70;99.90;;;;;;5041796;28;20032;-41
2022/12/18 07:12:49;;;;;;;18.90;12.17;;;-3.70;99.90;;;;;;5041707;28;20032;-40
2022/12/18 07:15:14;;;;;;;16.53;11.37;;;-3.70;99.90;;;;;;5042199;28;20020;-39
2022/12/18 07:17:40;;;;;;;18.90;11.60;;;-3.70;99.90;;;;;;5042203;28;20032;-39
2022/12/18 07:20:08;;;;;;;15.77;10.53;;;-3.70;99.90;;;;;;5042010;28;20021;-39
2022/12/18 07:22:34;;;;;;;20.30;11.80;;;-3.70;99.90;;;;;;5042335;28;20124;-40
2022/12/18 07:24:59;;;;;;;15.57;10.90;;;-3.70;99.90;;;;;;5042601;28;20108;-39
2022/12/18 07:27:25;;;;;;;18.33;11.43;;;-3.70;99.90;;;;;;5050706;28;20070;-40
2022/12/18 07:29:50;;;;;;;16.37;10.53;;;-3.60;99.90;;;;;;5040267;28;20164;-40
2022/12/18 07:32:16;;;;;;;16.70;10.53;;;-3.60;99.90;;;;;;5041051;28;20135;-40
2022/12/18 07:34:41;;;;;;;17.03;10.23;;;-3.60;99.90;;;;;;5040005;28;20056;-40
2022/12/18 07:37:07;;;;;;;18.50;10.43;;;-3.60;99.90;;;;;;5041140;28;20040;-40
2022/12/18 07:39:33;;;;;;;17.20;10.63;;;-3.60;99.90;;;;;;5041271;28;20028;-40
2022/12/18 07:44:44;;;;;;;15.83;9.90;;;-3.60;99.90;;;;;;5021086;28;20045;-40
2022/12/18 07:47:09;;;;;;;18.03;10.47;;;-3.60;99.90;;;;;;5035070;28;20051;-39
2022/12/18 07:49:35;;;;;;;17.50;10.27;;;-3.60;99.90;;;;;;5040716;28;20225;-39
2022/12/18 07:52:01;;;;;;;17.60;10.47;;;-3.60;99.90;;;;;;5040995;28;20126;-39
2022/12/18 07:54:27;;;;;;;16.10;9.80;;;-3.50;99.90;;;;;;5041177;28;20509;-39
2022/12/18 07:56:53;;;;;;;16.63;10.60;;;-3.50;99.90;;;;;;5040729;28;20025;-41
2022/12/18 07:59:18;;;;;;;16.87;9.83;;;-3.50;99.90;;;;;;5040421;28;20025;-40
2022/12/18 08:01:44;;;;;;;16.17;10.27;;;-3.50;99.90;;;;;;5041101;28;20124;-40
2022/12/18 08:04:09;;;;;;;14.80;9.43;;;-3.50;99.90;;;;;;5040890;28;20036;-40
2022/12/18 08:06:35;;;;;;;15.17;9.87;;;-3.50;99.90;;;;;;5041113;28;20135;-40
2022/12/18 08:09:01;;;;;;;14.20;9.90;;;-3.40;99.90;;;;;;5040041;28;20021;-38
2022/12/18 08:11:28;;;;;;;16.00;9.73;;;-3.40;99.90;;;;;;5041309;28;20036;-39
2022/12/18 08:13:54;;;;;;;14.63;9.67;;;-3.40;99.90;;;;;;5040472;28;20024;-41
2022/12/18 08:16:21;;;;;;;18.63;9.63;;;-3.30;99.90;;;;;;5040997;28;20044;-40
2022/12/18 08:18:47;;;;;;;13.53;9.67;;;-3.30;99.90;;;;;;5040381;28;20025;-40
2022/12/18 08:21:22;;;;;;;13.60;9.33;;;-3.20;99.90;;;;;;5041166;28;20040;-40
2022/12/18 08:23:49;;;;;;;14.73;8.83;;;-3.20;99.90;;;;;;5039868;28;20129;-40
2022/12/18 08:26:14;;;;;;;15.10;9.60;;;-3.20;99.90;;;;;;5040514;28;20033;-40
2022/12/18 08:28:40;;;;;;;17.00;10.27;;;-3.10;99.90;;;;;;5040140;28;20040;-41
2022/12/18 08:31:07;;;;;;;14.23;9.03;;;-3.10;99.90;;;;;;5039594;28;20159;-40
2022/12/18 08:33:34;;;;;;;15.87;9.90;;;-3.00;99.90;;;;;;5039614;28;20168;-40
2022/12/18 08:36:00;;;;;;;14.57;9.17;;;-3.00;99.90;;;;;;5040693;28;20033;-38
2022/12/18 08:38:26;;;;;;;13.57;8.43;;;-3.00;99.90;;;;;;5039090;28;20090;-42
2022/12/18 08:41:07;;;;;;;13.20;9.13;;;-3.00;99.90;;;;;;5039841;28;20044;-36
2022/12/18 08:46:19;;;;;;;13.00;8.97;;;-2.90;99.90;;;;;;5040535;28;20052;-41
2022/12/18 08:48:44;;;;;;;13.37;8.97;;;-2.80;99.90;;;;;;5040202;28;20020;-39
2022/12/18 08:51:10;;;;;;;13.87;8.87;;;-2.80;99.90;;;;;;5039460;28;20029;-41
2022/12/18 08:53:36;;;;;;;13.83;9.20;;;-2.80;99.90;;;;;;5039450;28;20570;-42
2022/12/18 08:56:03;;;;;;;13.90;9.03;;;-2.80;99.90;;;;;;5040023;28;20511;-39
2022/12/18 08:58:29;;;;;;;15.80;9.53;;;-2.70;99.90;;;;;;5040100;28;20373;-39
2022/12/18 09:01:00;;;;;;;13.20;8.67;;;-2.70;99.90;;;;;;5039839;28;20037;-41
2022/12/18 09:03:26;;;;;;;14.53;9.57;;;-2.70;99.90;;;;;;5040413;28;20029;-38
2022/12/18 09:05:52;;;;;;;14.77;9.57;;;-2.60;99.90;;;;;;5038968;28;20831;-39
2022/12/18 09:08:17;;;;;;;15.93;9.13;;;-2.60;99.90;;;;;;5039840;28;20029;-40
2022/12/18 09:10:49;;;;;;;14.40;8.87;;;-2.50;99.90;;;;;;5039776;28;20063;-37
2022/12/18 09:13:15;;;;;;;13.07;8.70;;;-2.50;99.90;;;;;;5039023;28;20025;-38
2022/12/18 09:15:49;;;;;;;13.67;8.83;;;-2.40;99.90;;;;;;5040218;28;20043;-40
2022/12/18 09:18:16;;;;;;;11.97;7.57;;;-2.30;99.90;;;;;;5039999;28;20035;-41
2022/12/18 09:20:42;;;;;;;12.20;8.00;;;-2.30;99.90;;;;;;5039371;28;20044;-41
2022/12/18 09:23:08;;;;;;;12.93;7.90;;;-2.20;99.90;;;;;;5040341;28;20017;-42
2022/12/18 09:25:35;;;;;;;12.10;7.63;;;-2.20;99.90;;;;;;5039135;28;20437;-41
2022/12/18 09:28:03;;;;;;;11.37;7.67;;;-2.10;99.90;;;;;;5040072;28;20048;-40
2022/12/18 09:30:29;;;;;;;10.10;7.03;;;-2.00;99.90;;;;;;5039871;28;20119;-42
2022/12/18 09:32:54;;;;;;;12.20;7.60;;;-2.00;99.90;;;;;;5038569;28;20203;-41
2022/12/18 09:35:20;;;;;;;12.07;7.03;;;-1.90;99.90;;;;;;5040001;28;20835;-41
2022/12/18 09:37:46;;;;;;;11.83;7.43;;;-1.80;99.90;;;;;;5039862;28;20044;-38
2022/12/18 09:40:18;;;;;;;10.57;7.10;;;-1.80;99.90;;;;;;5039367;28;20113;-41
2022/12/18 09:42:48;;;;;;;12.70;8.40;;;-1.70;99.90;;;;;;5041223;28;20423;-40
2022/12/18 09:45:15;;;;;;;11.77;7.50;;;-1.70;99.90;;;;;;5041878;28;20029;-41
2022/12/18 09:47:44;;;;;;;13.30;7.67;;;-1.60;99.90;;;;;;5037917;28;20646;-42
2022/12/18 09:50:31;;;;;;;11.37;6.97;;;-1.60;99.90;;;;;;5040352;28;20025;-39
2022/12/18 09:53:04;;;;;;;12.90;7.93;;;-1.50;99.90;;;;;;5035231;28;20091;-39
2022/12/18 09:55:50;;;;;;;13.37;7.70;;;-1.50;99.90;;;;;;5043057;28;20475;-40
2022/12/18 09:58:24;;;;;;;11.80;8.13;;;-1.40;99.90;;;;;;5043559;28;20401;-41
2022/12/18 10:00:52;;;;;;;12.77;7.80;;;-1.40;99.90;;;;;;5042206;28;20132;-40
2022/12/18 10:03:18;;;;;;;13.10;8.27;;;-1.40;99.90;;;;;;5043152;28;20059;-38
2022/12/18 10:05:54;;;;;;;12.47;7.80;;;-1.30;99.90;;;;;;5043260;28;20080;-40
2022/12/18 10:08:27;;;;;;;12.77;7.93;;;-1.30;99.90;;;;;;5042355;28;20040;-41
2022/12/18 10:10:53;;;;;;;;;;;-1.30;99.90;;;;;;5043287;28;20059;-40
2022/12/18 10:13:38;;;;;;;12.37;7.87;;;-1.20;99.90;;;;;;5042995;28;19909;-40
2022/12/18 10:16:19;;;;;;;12.33;7.73;;;-1.20;99.90;;;;;;5041892;28;20094;-39
2022/12/18 10:19:03;;;;;;;15.73;9.03;;;-1.20;99.90;;;;;;5043564;28;20036;-41
2022/12/18 10:21:41;;;;;;;13.07;8.93;;;-1.10;99.90;;;;;;5043108;28;20036;-40
2022/12/18 10:24:37;;;;;;;13.97;8.63;;;-1.10;99.90;;;;;;5043703;28;20029;-41
2022/12/18 10:27:21;;;;;;;14.40;9.00;;;-1.10;99.90;;;;;;5042674;28;20045;-40
2022/12/18 10:29:47;;;;;;;16.37;8.73;;;-1.00;99.90;;;;;;5042350;28;20037;-38
2022/12/18 10:32:22;;;;;;;14.67;8.80;;;-1.00;99.90;;;;;;5042320;28;20186;-41
2022/12/18 10:34:49;;;;;;;16.00;9.43;;;-0.90;99.90;;;;;;5042247;28;20021;-40
2022/12/18 10:37:20;;;;;;;14.20;8.90;;;-0.80;99.90;;;;;;5040992;28;20017;-41
2022/12/18 10:40:05;;;;;;;13.93;9.40;;;-0.80;99.90;;;;;;5042608;28;20060;-39
2022/12/18 10:42:31;;;;;;;12.67;8.53;;;-0.70;99.90;;;;;;5042502;28;20091;-40
2022/12/18 10:45:10;;;;;;;13.32;8.45;;;-0.70;99.90;;;;;;5041540;28;20029;-39
2022/12/18 10:47:41;;;;;;;12.87;9.47;;;-0.60;99.90;;;;;;5042950;28;20029;-42
2022/12/18 10:50:34;;;;;;;13.63;8.77;;;-0.60;99.90;;;;;;5042050;28;20033;-44
2022/12/18 10:53:03;;;;;;;12.73;8.17;;;-0.50;99.90;;;;;;5042669;28;20021;-42
2022/12/18 10:55:35;;;;;;;15.33;9.00;;;-0.50;99.90;;;;;;5042602;28;20124;-40
2022/12/18 10:58:26;;;;;;;13.57;8.70;;;-0.40;99.90;;;;;;5042305;28;20697;-40
2022/12/18 11:01:08;;;;;;;15.83;8.83;;;-0.40;99.90;;;;;;5043209;28;20041;-38
2022/12/18 11:04:07;;;;;;;14.17;8.10;;;-0.40;99.90;;;;;;5041227;28;20025;-41
2022/12/18 11:06:32;;;;;;;14.00;7.73;;;-0.30;99.90;;;;;;5022783;28;20046;-40
2022/12/18 11:09:04;;;;;;;14.03;8.80;;;-0.30;99.90;;;;;;5038624;28;20025;-40
2022/12/18 11:11:32;;;;;;;12.60;8.30;;;-0.30;99.90;;;;;;5039867;28;20694;-38
2022/12/18 11:14:00;;;;;;;15.07;9.13;;;-0.20;99.90;;;;;;5042379;28;20441;-41
2022/12/18 11:16:28;;;;;;;14.37;9.40;;;-0.20;99.90;;;;;;5042987;28;20028;-36
2022/12/18 11:18:54;;;;;;;16.27;9.50;;;-0.20;99.90;;;;;;5041535;28;20025;-39
2022/12/18 11:21:19;;;;;;;14.17;9.20;;;-0.10;99.90;;;;;;5041999;28;20605;-41
2022/12/18 11:23:53;;;;;;;20.43;12.43;;;-0.10;99.90;;;;;;5042606;28;20111;-41
2022/12/18 11:26:19;;;;;;;18.60;11.30;;;-0.10;99.90;;;;;;5040968;28;20040;-41
2022/12/18 11:28:52;;;;;;;17.30;11.60;;;0.00;99.90;;;;;;5042557;28;20388;-41
2022/12/18 11:31:27;;;;;;;17.30;10.95;;;0.00;99.90;;;;;;5042747;28;20076;-39
2022/12/18 11:34:01;;;;;;;16.65;12.23;;;0.00;99.90;;;;;;5041663;28;20045;-40
2022/12/18 11:36:33;;;;;;;17.50;12.45;;;0.10;99.90;;;;;;5042300;28;20886;-40
2022/12/18 11:39:05;;;;;;;27.67;18.27;;;0.10;99.90;;;;;;5041787;28;20431;-39
2022/12/18 11:44:35;;;;;;;18.40;11.50;;;0.10;99.90;;;;;;5042121;28;20546;-40
2022/12/18 11:47:09;;;;;;;17.92;11.25;;;0.20;99.90;;;;;;5040435;28;20029;-40
2022/12/18 11:49:35;;;;;;;17.47;11.10;;;0.20;99.90;;;;;;5041208;28;20128;-41
2022/12/18 11:52:22;;;;;;;15.47;10.00;;;0.20;99.90;;;;;;5041099;28;20036;-40
2022/12/18 11:55:00;;;;;;;17.08;10.73;;;0.30;99.90;;;;;;5041111;28;20051;-39
2022/12/18 11:57:42;;;;;;;16.20;10.13;;;0.30;99.90;;;;;;5041959;28;20021;-38
2022/12/18 12:00:16;;;;;;;14.57;9.57;;;0.40;99.90;;;;;;5041324;28;20025;-41
2022/12/18 12:03:00;;;;;;;34.73;26.73;;;0.40;99.90;;;;;;5041374;28;20287;-40
2022/12/18 12:05:50;;;;;;;25.92;19.50;;;0.40;99.90;;;;;;5041426;28;20063;-40
2022/12/18 12:08:22;;;;;;;22.27;16.00;;;0.40;99.90;;;;;;5041102;28;20017;-39
2022/12/18 12:11:15;;;;;;;19.50;14.15;;;0.50;99.90;;;;;;5041598;28;20135;-35
2022/12/18 12:14:00;;;;;;;21.13;13.75;;;0.50;99.90;;;;;;5021369;28;20029;-40
2022/12/18 12:16:50;;;;;;;18.75;13.35;;;0.50;99.90;;;;;;5037884;28;20033;-38
2022/12/18 12:19:34;;;;;;;18.15;11.85;;;0.50;99.90;;;;;;5041834;28;20041;-37
2022/12/18 12:22:38;;;;;;;16.35;10.82;;;0.50;99.90;;;;;;5039963;28;20120;-37
2022/12/18 12:25:25;;;;;;;17.40;11.32;;;0.50;99.90;;;;;;5041347;28;20048;-40
2022/12/18 12:28:20;;;;;;;14.43;9.77;;;0.60;99.90;;;;;;5030654;28;20432;-41
2022/12/18 12:31:07;;;;;;;16.27;9.95;;;0.60;99.90;;;;;;5040717;28;20035;-40
2022/12/18 12:33:40;;;;;;;13.15;9.32;;;0.70;99.90;;;;;;5040235;28;20495;-39
2022/12/18 12:36:35;;;;;;;14.55;8.80;;;0.70;99.90;;;;;;5039821;28;20017;-40
2022/12/18 12:39:07;;;;;;;15.43;10.18;;;0.70;99.90;;;;;;5039202;28;20034;-39
2022/12/18 12:44:32;;;;;;;13.90;8.98;;;0.70;99.90;;;;;;5040982;28;20047;-40
2022/12/18 12:47:04;;;;;;;15.02;9.50;;;0.70;99.90;;;;;;5040652;28;20020;-40
2022/12/18 12:49:32;;;;;;;15.85;9.52;;;0.80;99.90;;;;;;5040931;28;20037;-40
2022/12/18 12:52:17;;;;;;;12.93;8.95;;;0.80;99.90;;;;;;5041010;28;20017;-41
2022/12/18 12:54:44;;;;;;;12.88;9.00;;;0.80;99.90;;;;;;5041778;28;20067;-40
2022/12/18 12:57:29;;;;;;;14.93;9.23;;;0.80;99.90;;;;;;5040155;28;20730;-39
2022/12/18 13:00:00;;;;;;;14.15;8.90;;;0.80;99.90;;;;;;5040611;28;20029;-38